sensor_id;sensor_type;location;lat;lon;timestamp;P1;durP1;ratioP1;P2;durP2;ratioP2
27383;SDS011;14851;51.166;4.760;2023-10-31T00:00:27;16.70;;;10.77;;
27383;SDS011;14851;51.166;4.760;2023-10-31T00:02:53;17.73;;;10.43;;
27383;SDS011;14851;51.166;4.760;2023-10-31T00:05:19;13.02;;;9.82;;
27383;SDS011;14851;51.166;4.760;2023-10-31T00:07:45;12.57;;;9.02;;
27383;SDS011;14851;51.166;4.760;2023-10-31T00:10:11;13.82;;;9.65;;
27383;SDS011;14851;51.166;4.760;2023-10-31T00:12:38;18.38;;;9.73;;
27383;SDS011;14851;51.166;4.760;2023-10-31T00:15:05;13.30;;;9.38;;
27383;SDS011;14851;51.166;4.760;2023-10-31T00:17:31;12.70;;;9.23;;
27383;SDS011;14851;51.166;4.760;2023-10-31T00:19:58;12.63;;;9.50;;
27383;SDS011;14851;51.166;4.760;2023-10-31T00:22:26;15.50;;;10.10;;
27383;SDS011;14851;51.166;4.760;2023-10-31T00:24:53;13.45;;;10.50;;
27383;SDS011;14851;51.166;4.760;2023-10-31T00:27:18;12.57;;;9.68;;
27383;SDS011;14851;51.166;4.760;2023-10-31T00:29:47;13.45;;;9.75;;
27383;SDS011;14851;51.166;4.760;2023-10-31T00:32:14;14.32;;;10.50;;
27383;SDS011;14851;51.166;4.760;2023-10-31T00:34:42;19.60;;;10.73;;
27383;SDS011;14851;51.166;4.760;2023-10-31T00:37:09;16.23;;;11.57;;
27383;SDS011;14851;51.166;4.760;2023-10-31T00:39:39;17.92;;;12.02;;
27383;SDS011;14851;51.166;4.760;2023-10-31T00:42:05;19.27;;;12.30;;
27383;SDS011;14851;51.166;4.760;2023-10-31T00:44:34;20.23;;;13.25;;
27383;SDS011;14851;51.166;4.760;2023-10-31T00:47:01;20.00;;;14.30;;
27383;SDS011;14851;51.166;4.760;2023-10-31T00:49:31;20.92;;;14.15;;
27383;SDS011;14851;51.166;4.760;2023-10-31T00:51:57;20.52;;;14.25;;
27383;SDS011;14851;51.166;4.760;2023-10-31T00:54:23;21.10;;;13.95;;
27383;SDS011;14851;51.166;4.760;2023-10-31T00:56:49;22.70;;;14.98;;
27383;SDS011;14851;51.166;4.760;2023-10-31T00:59:15;26.25;;;16.25;;
27383;SDS011;14851;51.166;4.760;2023-10-31T01:01:42;24.55;;;15.93;;
27383;SDS011;14851;51.166;4.760;2023-10-31T01:04:09;21.02;;;15.48;;
27383;SDS011;14851;51.166;4.760;2023-10-31T01:06:40;22.73;;;15.82;;
27383;SDS011;14851;51.166;4.760;2023-10-31T01:09:07;20.73;;;14.05;;
27383;SDS011;14851;51.166;4.760;2023-10-31T01:11:35;20.42;;;14.27;;
27383;SDS011;14851;51.166;4.760;2023-10-31T01:14:01;19.02;;;13.48;;
27383;SDS011;14851;51.166;4.760;2023-10-31T01:16:28;19.42;;;13.25;;
27383;SDS011;14851;51.166;4.760;2023-10-31T01:18:54;19.20;;;11.90;;
27383;SDS011;14851;51.166;4.760;2023-10-31T01:21:21;15.88;;;11.43;;
27383;SDS011;14851;51.166;4.760;2023-10-31T01:23:47;17.38;;;11.77;;
27383;SDS011;14851;51.166;4.760;2023-10-31T01:26:15;19.50;;;13.88;;
27383;SDS011;14851;51.166;4.760;2023-10-31T01:28:44;22.73;;;15.30;;
27383;SDS011;14851;51.166;4.760;2023-10-31T01:31:12;20.73;;;15.25;;
27383;SDS011;14851;51.166;4.760;2023-10-31T01:33:38;19.15;;;15.30;;
27383;SDS011;14851;51.166;4.760;2023-10-31T01:36:06;21.45;;;16.75;;
27383;SDS011;14851;51.166;4.760;2023-10-31T01:38:32;23.98;;;17.33;;
27383;SDS011;14851;51.166;4.760;2023-10-31T01:40:59;24.02;;;17.20;;
27383;SDS011;14851;51.166;4.760;2023-10-31T01:43:33;23.77;;;17.85;;
27383;SDS011;14851;51.166;4.760;2023-10-31T01:46:03;23.55;;;17.55;;
27383;SDS011;14851;51.166;4.760;2023-10-31T01:48:30;24.25;;;18.02;;
27383;SDS011;14851;51.166;4.760;2023-10-31T01:50:58;23.58;;;17.60;;
27383;SDS011;14851;51.166;4.760;2023-10-31T01:53:29;24.02;;;18.23;;
27383;SDS011;14851;51.166;4.760;2023-10-31T01:55:59;23.63;;;17.98;;
27383;SDS011;14851;51.166;4.760;2023-10-31T01:58:29;24.90;;;17.83;;
27383;SDS011;14851;51.166;4.760;2023-10-31T02:01:00;22.98;;;18.08;;
27383;SDS011;14851;51.166;4.760;2023-10-31T02:03:29;21.40;;;18.25;;
27383;SDS011;14851;51.166;4.760;2023-10-31T02:05:56;26.42;;;19.48;;
27383;SDS011;14851;51.166;4.760;2023-10-31T02:08:25;24.55;;;19.25;;
27383;SDS011;14851;51.166;4.760;2023-10-31T02:10:52;25.15;;;19.50;;
27383;SDS011;14851;51.166;4.760;2023-10-31T02:13:20;24.75;;;19.58;;
27383;SDS011;14851;51.166;4.760;2023-10-31T02:15:46;27.35;;;19.88;;
27383;SDS011;14851;51.166;4.760;2023-10-31T02:18:13;26.25;;;19.70;;
27383;SDS011;14851;51.166;4.760;2023-10-31T02:20:41;22.92;;;18.70;;
27383;SDS011;14851;51.166;4.760;2023-10-31T02:23:07;21.80;;;18.48;;
27383;SDS011;14851;51.166;4.760;2023-10-31T02:25:34;21.20;;;17.42;;
27383;SDS011;14851;51.166;4.760;2023-10-31T02:28:00;21.25;;;16.60;;
27383;SDS011;14851;51.166;4.760;2023-10-31T02:30:27;17.55;;;15.68;;
27383;SDS011;14851;51.166;4.760;2023-10-31T02:32:53;17.63;;;15.02;;
27383;SDS011;14851;51.166;4.760;2023-10-31T02:35:21;20.65;;;15.80;;
27383;SDS011;14851;51.166;4.760;2023-10-31T02:37:49;18.40;;;15.13;;
27383;SDS011;14851;51.166;4.760;2023-10-31T02:40:16;17.90;;;15.82;;
27383;SDS011;14851;51.166;4.760;2023-10-31T02:42:47;19.08;;;15.32;;
27383;SDS011;14851;51.166;4.760;2023-10-31T02:45:13;20.88;;;15.35;;
27383;SDS011;14851;51.166;4.760;2023-10-31T02:47:40;18.88;;;15.77;;
27383;SDS011;14851;51.166;4.760;2023-10-31T02:50:06;19.05;;;16.48;;
27383;SDS011;14851;51.166;4.760;2023-10-31T02:52:33;21.48;;;16.15;;
27383;SDS011;14851;51.166;4.760;2023-10-31T02:54:59;19.35;;;15.93;;
27383;SDS011;14851;51.166;4.760;2023-10-31T02:57:26;21.23;;;17.08;;
27383;SDS011;14851;51.166;4.760;2023-10-31T02:59:52;19.88;;;17.33;;
27383;SDS011;14851;51.166;4.760;2023-10-31T03:02:19;19.10;;;16.40;;
27383;SDS011;14851;51.166;4.760;2023-10-31T03:04:47;21.05;;;16.88;;
27383;SDS011;14851;51.166;4.760;2023-10-31T03:07:13;23.67;;;18.80;;
27383;SDS011;14851;51.166;4.760;2023-10-31T03:09:39;24.40;;;18.70;;
27383;SDS011;14851;51.166;4.760;2023-10-31T03:12:08;20.98;;;18.75;;
27383;SDS011;14851;51.166;4.760;2023-10-31T03:14:38;22.90;;;18.83;;
27383;SDS011;14851;51.166;4.760;2023-10-31T03:17:05;22.95;;;18.02;;
27383;SDS011;14851;51.166;4.760;2023-10-31T03:19:33;20.45;;;18.13;;
27383;SDS011;14851;51.166;4.760;2023-10-31T03:22:01;21.15;;;16.88;;
27383;SDS011;14851;51.166;4.760;2023-10-31T03:24:31;21.60;;;17.35;;
27383;SDS011;14851;51.166;4.760;2023-10-31T03:26:58;20.23;;;18.05;;
27383;SDS011;14851;51.166;4.760;2023-10-31T03:29:24;20.15;;;16.95;;
27383;SDS011;14851;51.166;4.760;2023-10-31T03:31:50;22.25;;;17.10;;
27383;SDS011;14851;51.166;4.760;2023-10-31T03:34:17;18.38;;;16.27;;
27383;SDS011;14851;51.166;4.760;2023-10-31T03:36:43;18.25;;;16.35;;
27383;SDS011;14851;51.166;4.760;2023-10-31T03:39:09;18.60;;;15.52;;
27383;SDS011;14851;51.166;4.760;2023-10-31T03:41:35;17.70;;;15.80;;
27383;SDS011;14851;51.166;4.760;2023-10-31T03:44:01;18.38;;;14.20;;
27383;SDS011;14851;51.166;4.760;2023-10-31T03:46:28;14.57;;;13.07;;
27383;SDS011;14851;51.166;4.760;2023-10-31T03:48:55;15.23;;;13.02;;
27383;SDS011;14851;51.166;4.760;2023-10-31T03:51:21;13.32;;;11.93;;
27383;SDS011;14851;51.166;4.760;2023-10-31T03:53:47;12.15;;;10.93;;
27383;SDS011;14851;51.166;4.760;2023-10-31T03:56:13;12.48;;;10.93;;
27383;SDS011;14851;51.166;4.760;2023-10-31T03:58:40;13.00;;;10.18;;
27383;SDS011;14851;51.166;4.760;2023-10-31T04:01:07;10.77;;;9.68;;
27383;SDS011;14851;51.166;4.760;2023-10-31T04:03:34;11.38;;;9.52;;
27383;SDS011;14851;51.166;4.760;2023-10-31T04:06:00;12.73;;;9.13;;
27383;SDS011;14851;51.166;4.760;2023-10-31T04:08:26;10.00;;;9.00;;
27383;SDS011;14851;51.166;4.760;2023-10-31T04:10:52;10.13;;;8.77;;
27383;SDS011;14851;51.166;4.760;2023-10-31T04:13:18;10.40;;;9.07;;
27383;SDS011;14851;51.166;4.760;2023-10-31T04:15:44;9.85;;;8.75;;
27383;SDS011;14851;51.166;4.760;2023-10-31T04:18:11;9.65;;;8.68;;
27383;SDS011;14851;51.166;4.760;2023-10-31T04:20:37;9.70;;;8.60;;
27383;SDS011;14851;51.166;4.760;2023-10-31T04:23:03;9.00;;;8.10;;
27383;SDS011;14851;51.166;4.760;2023-10-31T04:25:32;10.27;;;8.48;;
27383;SDS011;14851;51.166;4.760;2023-10-31T04:27:59;12.13;;;8.25;;
27383;SDS011;14851;51.166;4.760;2023-10-31T04:30:25;9.65;;;7.85;;
27383;SDS011;14851;51.166;4.760;2023-10-31T04:32:52;8.82;;;7.93;;
27383;SDS011;14851;51.166;4.760;2023-10-31T04:35:19;11.35;;;8.73;;
27383;SDS011;14851;51.166;4.760;2023-10-31T04:37:45;9.23;;;7.15;;
27383;SDS011;14851;51.166;4.760;2023-10-31T04:40:11;7.88;;;7.07;;
27383;SDS011;14851;51.166;4.760;2023-10-31T04:42:41;9.68;;;7.25;;
27383;SDS011;14851;51.166;4.760;2023-10-31T04:45:07;10.77;;;7.30;;
27383;SDS011;14851;51.166;4.760;2023-10-31T04:47:34;7.53;;;6.80;;
27383;SDS011;14851;51.166;4.760;2023-10-31T04:50:00;9.95;;;7.20;;
27383;SDS011;14851;51.166;4.760;2023-10-31T04:52:28;8.23;;;7.40;;
27383;SDS011;14851;51.166;4.760;2023-10-31T04:54:55;9.77;;;6.63;;
27383;SDS011;14851;51.166;4.760;2023-10-31T04:57:21;7.85;;;6.47;;
27383;SDS011;14851;51.166;4.760;2023-10-31T04:59:47;8.55;;;6.65;;
27383;SDS011;14851;51.166;4.760;2023-10-31T05:02:14;7.70;;;6.53;;
27383;SDS011;14851;51.166;4.760;2023-10-31T05:04:41;7.65;;;6.13;;
27383;SDS011;14851;51.166;4.760;2023-10-31T05:07:09;8.90;;;6.93;;
27383;SDS011;14851;51.166;4.760;2023-10-31T05:09:35;10.43;;;6.15;;
27383;SDS011;14851;51.166;4.760;2023-10-31T05:12:01;8.45;;;6.32;;
27383;SDS011;14851;51.166;4.760;2023-10-31T05:14:28;9.48;;;6.65;;
27383;SDS011;14851;51.166;4.760;2023-10-31T05:16:54;8.23;;;6.55;;
27383;SDS011;14851;51.166;4.760;2023-10-31T05:19:20;7.15;;;5.85;;
27383;SDS011;14851;51.166;4.760;2023-10-31T05:21:46;8.35;;;5.70;;
27383;SDS011;14851;51.166;4.760;2023-10-31T05:24:13;7.47;;;5.50;;
27383;SDS011;14851;51.166;4.760;2023-10-31T05:26:39;7.53;;;5.60;;
27383;SDS011;14851;51.166;4.760;2023-10-31T05:29:10;9.07;;;6.38;;
27383;SDS011;14851;51.166;4.760;2023-10-31T05:31:37;9.23;;;6.40;;
27383;SDS011;14851;51.166;4.760;2023-10-31T05:34:10;6.07;;;5.32;;
27383;SDS011;14851;51.166;4.760;2023-10-31T05:36:38;6.78;;;5.68;;
27383;SDS011;14851;51.166;4.760;2023-10-31T05:39:05;6.93;;;5.28;;
27383;SDS011;14851;51.166;4.760;2023-10-31T05:41:36;6.38;;;5.68;;
27383;SDS011;14851;51.166;4.760;2023-10-31T05:44:02;6.68;;;6.05;;
27383;SDS011;14851;51.166;4.760;2023-10-31T05:46:32;9.13;;;6.30;;
27383;SDS011;14851;51.166;4.760;2023-10-31T05:49:06;7.40;;;6.28;;
27383;SDS011;14851;51.166;4.760;2023-10-31T05:51:33;8.13;;;6.13;;
27383;SDS011;14851;51.166;4.760;2023-10-31T05:54:02;10.88;;;6.18;;
27383;SDS011;14851;51.166;4.760;2023-10-31T05:56:28;8.15;;;6.47;;
27383;SDS011;14851;51.166;4.760;2023-10-31T05:58:54;7.85;;;7.05;;
27383;SDS011;14851;51.166;4.760;2023-10-31T06:01:21;9.65;;;8.75;;
27383;SDS011;14851;51.166;4.760;2023-10-31T06:03:47;8.45;;;7.13;;
27383;SDS011;14851;51.166;4.760;2023-10-31T06:06:13;8.75;;;6.78;;
27383;SDS011;14851;51.166;4.760;2023-10-31T06:08:42;9.80;;;8.05;;
27383;SDS011;14851;51.166;4.760;2023-10-31T06:11:09;11.50;;;7.57;;
27383;SDS011;14851;51.166;4.760;2023-10-31T06:13:37;7.60;;;6.88;;
27383;SDS011;14851;51.166;4.760;2023-10-31T06:16:04;9.60;;;7.53;;
27383;SDS011;14851;51.166;4.760;2023-10-31T06:18:33;12.30;;;8.18;;
27383;SDS011;14851;51.166;4.760;2023-10-31T06:21:00;10.35;;;9.20;;
27383;SDS011;14851;51.166;4.760;2023-10-31T06:23:28;11.43;;;8.43;;
27383;SDS011;14851;51.166;4.760;2023-10-31T06:25:54;11.15;;;10.05;;
27383;SDS011;14851;51.166;4.760;2023-10-31T06:28:23;12.15;;;9.90;;
27383;SDS011;14851;51.166;4.760;2023-10-31T06:30:49;12.15;;;10.60;;
27383;SDS011;14851;51.166;4.760;2023-10-31T06:33:15;12.90;;;10.50;;
27383;SDS011;14851;51.166;4.760;2023-10-31T06:35:41;12.30;;;10.98;;
27383;SDS011;14851;51.166;4.760;2023-10-31T06:38:07;11.85;;;10.10;;
27383;SDS011;14851;51.166;4.760;2023-10-31T06:40:33;12.60;;;11.40;;
27383;SDS011;14851;51.166;4.760;2023-10-31T06:43:00;12.02;;;10.82;;
27383;SDS011;14851;51.166;4.760;2023-10-31T06:45:30;13.52;;;11.23;;
27383;SDS011;14851;51.166;4.760;2023-10-31T06:47:57;12.48;;;11.18;;
27383;SDS011;14851;51.166;4.760;2023-10-31T06:50:23;11.25;;;10.02;;
27383;SDS011;14851;51.166;4.760;2023-10-31T06:52:49;12.60;;;11.40;;
27383;SDS011;14851;51.166;4.760;2023-10-31T06:55:16;14.75;;;10.65;;
27383;SDS011;14851;51.166;4.760;2023-10-31T06:57:41;13.02;;;11.52;;
27383;SDS011;14851;51.166;4.760;2023-10-31T07:00:08;12.73;;;11.30;;
27383;SDS011;14851;51.166;4.760;2023-10-31T07:02:36;15.27;;;12.60;;
27383;SDS011;14851;51.166;4.760;2023-10-31T07:05:03;14.98;;;13.43;;
27383;SDS011;14851;51.166;4.760;2023-10-31T07:07:30;14.50;;;12.98;;
27383;SDS011;14851;51.166;4.760;2023-10-31T07:09:56;16.00;;;14.02;;
27383;SDS011;14851;51.166;4.760;2023-10-31T07:12:25;13.90;;;12.52;;
27383;SDS011;14851;51.166;4.760;2023-10-31T07:14:52;16.90;;;14.32;;
27383;SDS011;14851;51.166;4.760;2023-10-31T07:17:19;18.70;;;15.30;;
27383;SDS011;14851;51.166;4.760;2023-10-31T07:19:48;15.38;;;13.65;;
27383;SDS011;14851;51.166;4.760;2023-10-31T07:22:14;17.10;;;14.50;;
27383;SDS011;14851;51.166;4.760;2023-10-31T07:24:43;15.63;;;14.13;;
27383;SDS011;14851;51.166;4.760;2023-10-31T07:27:10;16.73;;;13.60;;
27383;SDS011;14851;51.166;4.760;2023-10-31T07:29:38;16.52;;;14.80;;
27383;SDS011;14851;51.166;4.760;2023-10-31T07:32:06;15.95;;;14.18;;
27383;SDS011;14851;51.166;4.760;2023-10-31T07:34:33;20.52;;;15.10;;
27383;SDS011;14851;51.166;4.760;2023-10-31T07:37:00;17.15;;;15.18;;
27383;SDS011;14851;51.166;4.760;2023-10-31T07:39:26;19.58;;;15.93;;
27383;SDS011;14851;51.166;4.760;2023-10-31T07:41:52;17.35;;;15.13;;
27383;SDS011;14851;51.166;4.760;2023-10-31T07:44:18;18.25;;;15.93;;
27383;SDS011;14851;51.166;4.760;2023-10-31T07:46:44;19.23;;;15.65;;
27383;SDS011;14851;51.166;4.760;2023-10-31T07:49:11;21.27;;;16.95;;
27383;SDS011;14851;51.166;4.760;2023-10-31T07:51:37;19.20;;;16.83;;
27383;SDS011;14851;51.166;4.760;2023-10-31T07:54:04;19.88;;;15.93;;
27383;SDS011;14851;51.166;4.760;2023-10-31T07:56:30;19.50;;;16.05;;
27383;SDS011;14851;51.166;4.760;2023-10-31T07:58:58;18.15;;;15.63;;
27383;SDS011;14851;51.166;4.760;2023-10-31T08:01:24;19.05;;;16.23;;
27383;SDS011;14851;51.166;4.760;2023-10-31T08:03:50;19.20;;;16.13;;
27383;SDS011;14851;51.166;4.760;2023-10-31T08:06:16;19.33;;;15.85;;
27383;SDS011;14851;51.166;4.760;2023-10-31T08:08:42;17.60;;;15.57;;
27383;SDS011;14851;51.166;4.760;2023-10-31T08:11:09;17.60;;;15.30;;
27383;SDS011;14851;51.166;4.760;2023-10-31T08:13:36;20.25;;;16.20;;
27383;SDS011;14851;51.166;4.760;2023-10-31T08:16:05;18.40;;;16.08;;
27383;SDS011;14851;51.166;4.760;2023-10-31T08:18:32;21.13;;;17.23;;
27383;SDS011;14851;51.166;4.760;2023-10-31T08:20:59;20.42;;;16.88;;
27383;SDS011;14851;51.166;4.760;2023-10-31T08:23:25;19.67;;;17.55;;
27383;SDS011;14851;51.166;4.760;2023-10-31T08:25:52;24.50;;;17.90;;
27383;SDS011;14851;51.166;4.760;2023-10-31T08:28:18;18.00;;;15.43;;
27383;SDS011;14851;51.166;4.760;2023-10-31T08:30:45;18.10;;;15.50;;
27383;SDS011;14851;51.166;4.760;2023-10-31T08:33:12;19.42;;;14.98;;
27383;SDS011;14851;51.166;4.760;2023-10-31T08:35:38;18.30;;;15.18;;
27383;SDS011;14851;51.166;4.760;2023-10-31T08:38:05;19.15;;;14.88;;
27383;SDS011;14851;51.166;4.760;2023-10-31T08:40:31;18.77;;;15.90;;
27383;SDS011;14851;51.166;4.760;2023-10-31T08:42:57;18.50;;;15.63;;
27383;SDS011;14851;51.166;4.760;2023-10-31T08:45:23;20.17;;;14.80;;
27383;SDS011;14851;51.166;4.760;2023-10-31T08:47:49;15.80;;;13.98;;
27383;SDS011;14851;51.166;4.760;2023-10-31T08:50:15;16.40;;;13.07;;
27383;SDS011;14851;51.166;4.760;2023-10-31T08:52:41;17.60;;;14.05;;
27383;SDS011;14851;51.166;4.760;2023-10-31T08:55:08;14.77;;;12.95;;
27383;SDS011;14851;51.166;4.760;2023-10-31T08:57:34;14.55;;;12.93;;
27383;SDS011;14851;51.166;4.760;2023-10-31T09:00:00;13.65;;;12.13;;
27383;SDS011;14851;51.166;4.760;2023-10-31T09:02:26;15.75;;;13.32;;
27383;SDS011;14851;51.166;4.760;2023-10-31T09:04:52;16.98;;;12.43;;
27383;SDS011;14851;51.166;4.760;2023-10-31T09:07:19;14.15;;;12.15;;
27383;SDS011;14851;51.166;4.760;2023-10-31T09:09:45;15.27;;;11.80;;
27383;SDS011;14851;51.166;4.760;2023-10-31T09:12:12;13.85;;;11.90;;
27383;SDS011;14851;51.166;4.760;2023-10-31T09:14:38;15.70;;;12.00;;
27383;SDS011;14851;51.166;4.760;2023-10-31T09:17:06;13.55;;;12.00;;
27383;SDS011;14851;51.166;4.760;2023-10-31T09:19:33;14.70;;;12.00;;
27383;SDS011;14851;51.166;4.760;2023-10-31T09:21:59;14.70;;;11.77;;
27383;SDS011;14851;51.166;4.760;2023-10-31T09:24:26;15.52;;;12.13;;
27383;SDS011;14851;51.166;4.760;2023-10-31T09:26:52;13.60;;;10.93;;
27383;SDS011;14851;51.166;4.760;2023-10-31T09:29:19;14.27;;;10.40;;
27383;SDS011;14851;51.166;4.760;2023-10-31T09:31:45;12.23;;;9.88;;
27383;SDS011;14851;51.166;4.760;2023-10-31T09:34:13;14.02;;;11.20;;
27383;SDS011;14851;51.166;4.760;2023-10-31T09:36:40;11.73;;;9.85;;
27383;SDS011;14851;51.166;4.760;2023-10-31T09:39:07;11.13;;;9.95;;
27383;SDS011;14851;51.166;4.760;2023-10-31T09:41:36;13.80;;;11.27;;
27383;SDS011;14851;51.166;4.760;2023-10-31T09:44:03;12.48;;;10.43;;
27383;SDS011;14851;51.166;4.760;2023-10-31T09:46:33;12.82;;;11.63;;
27383;SDS011;14851;51.166;4.760;2023-10-31T09:49:00;11.45;;;10.20;;
27383;SDS011;14851;51.166;4.760;2023-10-31T09:51:27;12.82;;;9.80;;
27383;SDS011;14851;51.166;4.760;2023-10-31T09:53:56;10.68;;;8.75;;
27383;SDS011;14851;51.166;4.760;2023-10-31T09:56:24;11.68;;;10.07;;
27383;SDS011;14851;51.166;4.760;2023-10-31T09:58:52;11.23;;;8.50;;
27383;SDS011;14851;51.166;4.760;2023-10-31T10:01:18;11.13;;;7.60;;
27383;SDS011;14851;51.166;4.760;2023-10-31T10:03:45;9.60;;;7.82;;
27383;SDS011;14851;51.166;4.760;2023-10-31T10:06:11;11.70;;;7.95;;
27383;SDS011;14851;51.166;4.760;2023-10-31T10:08:41;9.50;;;8.00;;
27383;SDS011;14851;51.166;4.760;2023-10-31T10:11:07;10.25;;;8.43;;
27383;SDS011;14851;51.166;4.760;2023-10-31T10:13:34;8.73;;;7.18;;
27383;SDS011;14851;51.166;4.760;2023-10-31T10:16:01;9.10;;;6.65;;
27383;SDS011;14851;51.166;4.760;2023-10-31T10:18:28;7.35;;;6.30;;
27383;SDS011;14851;51.166;4.760;2023-10-31T10:21:03;7.05;;;6.07;;
27383;SDS011;14851;51.166;4.760;2023-10-31T10:23:31;9.15;;;5.55;;
27383;SDS011;14851;51.166;4.760;2023-10-31T10:25:58;8.50;;;5.50;;
27383;SDS011;14851;51.166;4.760;2023-10-31T10:28:26;6.28;;;4.82;;
27383;SDS011;14851;51.166;4.760;2023-10-31T10:30:54;6.30;;;5.10;;
27383;SDS011;14851;51.166;4.760;2023-10-31T10:33:22;8.30;;;5.20;;
27383;SDS011;14851;51.166;4.760;2023-10-31T10:35:51;8.23;;;5.70;;
27383;SDS011;14851;51.166;4.760;2023-10-31T10:38:21;6.88;;;5.40;;
27383;SDS011;14851;51.166;4.760;2023-10-31T10:40:49;6.88;;;5.53;;
27383;SDS011;14851;51.166;4.760;2023-10-31T10:43:23;7.95;;;5.50;;
27383;SDS011;14851;51.166;4.760;2023-10-31T10:45:53;7.00;;;5.15;;
27383;SDS011;14851;51.166;4.760;2023-10-31T10:48:26;6.75;;;5.32;;
27383;SDS011;14851;51.166;4.760;2023-10-31T10:51:02;5.45;;;4.93;;
27383;SDS011;14851;51.166;4.760;2023-10-31T10:53:49;5.97;;;4.95;;
27383;SDS011;14851;51.166;4.760;2023-10-31T10:56:34;6.38;;;5.30;;
27383;SDS011;14851;51.166;4.760;2023-10-31T11:01:52;8.10;;;5.30;;
27383;SDS011;14851;51.166;4.760;2023-10-31T11:04:23;6.55;;;5.25;;
27383;SDS011;14851;51.166;4.760;2023-10-31T11:06:50;6.95;;;5.43;;
27383;SDS011;14851;51.166;4.760;2023-10-31T11:09:16;8.30;;;4.93;;
27383;SDS011;14851;51.166;4.760;2023-10-31T11:11:44;8.55;;;5.40;;
27383;SDS011;14851;51.166;4.760;2023-10-31T11:14:15;5.55;;;4.78;;
27383;SDS011;14851;51.166;4.760;2023-10-31T11:16:51;6.65;;;5.38;;
27383;SDS011;14851;51.166;4.760;2023-10-31T11:21:57;5.00;;;4.32;;
27383;SDS011;14851;51.166;4.760;2023-10-31T11:24:35;6.75;;;3.67;;
27383;SDS011;14851;51.166;4.760;2023-10-31T11:27:03;6.03;;;3.50;;
27383;SDS011;14851;51.166;4.760;2023-10-31T11:29:31;7.35;;;3.45;;
27383;SDS011;14851;51.166;4.760;2023-10-31T11:31:59;4.70;;;3.30;;
27383;SDS011;14851;51.166;4.760;2023-10-31T11:34:31;8.55;;;4.13;;
27383;SDS011;14851;51.166;4.760;2023-10-31T11:42:43;7.68;;;3.70;;
27383;SDS011;14851;51.166;4.760;2023-10-31T11:48:04;8.80;;;3.80;;
27383;SDS011;14851;51.166;4.760;2023-10-31T11:50:31;9.15;;;4.22;;
27383;SDS011;14851;51.166;4.760;2023-10-31T11:52:59;5.15;;;3.35;;
27383;SDS011;14851;51.166;4.760;2023-10-31T11:55:45;7.43;;;3.40;;
27383;SDS011;14851;51.166;4.760;2023-10-31T12:00:42;8.88;;;4.40;;
27383;SDS011;14851;51.166;4.760;2023-10-31T12:03:10;10.32;;;3.85;;
27383;SDS011;14851;51.166;4.760;2023-10-31T12:05:39;10.82;;;3.95;;
27383;SDS011;14851;51.166;4.760;2023-10-31T12:08:06;11.80;;;5.18;;
27383;SDS011;14851;51.166;4.760;2023-10-31T12:10:32;9.65;;;4.22;;
27383;SDS011;14851;51.166;4.760;2023-10-31T12:12:58;11.15;;;5.55;;
27383;SDS011;14851;51.166;4.760;2023-10-31T12:15:28;13.05;;;4.93;;
27383;SDS011;14851;51.166;4.760;2023-10-31T12:17:57;10.40;;;4.47;;
27383;SDS011;14851;51.166;4.760;2023-10-31T12:20:25;9.50;;;4.20;;
27383;SDS011;14851;51.166;4.760;2023-10-31T12:23:01;11.23;;;4.38;;
27383;SDS011;14851;51.166;4.760;2023-10-31T12:25:29;7.82;;;3.65;;
27383;SDS011;14851;51.166;4.760;2023-10-31T12:27:58;11.52;;;3.65;;
27383;SDS011;14851;51.166;4.760;2023-10-31T12:30:24;7.97;;;3.05;;
27383;SDS011;14851;51.166;4.760;2023-10-31T12:32:54;8.02;;;3.75;;
27383;SDS011;14851;51.166;4.760;2023-10-31T12:35:23;10.45;;;5.18;;
27383;SDS011;14851;51.166;4.760;2023-10-31T12:37:51;10.18;;;4.95;;
27383;SDS011;14851;51.166;4.760;2023-10-31T12:40:19;11.60;;;5.07;;
27383;SDS011;14851;51.166;4.760;2023-10-31T12:42:47;10.40;;;5.45;;
27383;SDS011;14851;51.166;4.760;2023-10-31T12:45:14;12.63;;;6.13;;
27383;SDS011;14851;51.166;4.760;2023-10-31T12:47:43;10.02;;;6.18;;
27383;SDS011;14851;51.166;4.760;2023-10-31T12:50:13;11.88;;;7.57;;
27383;SDS011;14851;51.166;4.760;2023-10-31T12:52:46;13.80;;;8.13;;
27383;SDS011;14851;51.166;4.760;2023-10-31T12:55:15;13.05;;;8.82;;
27383;SDS011;14851;51.166;4.760;2023-10-31T12:57:43;12.60;;;7.82;;
27383;SDS011;14851;51.166;4.760;2023-10-31T13:00:12;15.48;;;9.38;;
27383;SDS011;14851;51.166;4.760;2023-10-31T13:02:44;11.57;;;7.95;;
27383;SDS011;14851;51.166;4.760;2023-10-31T13:05:12;12.65;;;8.45;;
27383;SDS011;14851;51.166;4.760;2023-10-31T13:07:39;12.13;;;9.07;;
27383;SDS011;14851;51.166;4.760;2023-10-31T13:10:13;15.35;;;9.02;;
27383;SDS011;14851;51.166;4.760;2023-10-31T13:12:44;15.32;;;8.13;;
27383;SDS011;14851;51.166;4.760;2023-10-31T13:17:44;13.82;;;7.60;;
27383;SDS011;14851;51.166;4.760;2023-10-31T13:20:11;15.25;;;8.15;;
27383;SDS011;14851;51.166;4.760;2023-10-31T13:22:39;11.27;;;7.75;;
27383;SDS011;14851;51.166;4.760;2023-10-31T13:25:11;14.80;;;7.90;;
27383;SDS011;14851;51.166;4.760;2023-10-31T13:27:42;13.02;;;7.90;;
27383;SDS011;14851;51.166;4.760;2023-10-31T13:30:10;15.20;;;7.82;;
27383;SDS011;14851;51.166;4.760;2023-10-31T13:32:38;13.23;;;7.43;;
27383;SDS011;14851;51.166;4.760;2023-10-31T13:35:05;14.40;;;6.97;;
27383;SDS011;14851;51.166;4.760;2023-10-31T13:37:33;11.50;;;6.00;;
27383;SDS011;14851;51.166;4.760;2023-10-31T13:40:00;10.00;;;6.40;;
27383;SDS011;14851;51.166;4.760;2023-10-31T13:42:27;9.32;;;6.97;;
27383;SDS011;14851;51.166;4.760;2023-10-31T13:44:54;10.60;;;6.25;;
27383;SDS011;14851;51.166;4.760;2023-10-31T13:47:20;8.43;;;6.32;;
27383;SDS011;14851;51.166;4.760;2023-10-31T13:49:47;9.15;;;5.88;;
27383;SDS011;14851;51.166;4.760;2023-10-31T13:52:14;7.72;;;5.78;;
27383;SDS011;14851;51.166;4.760;2023-10-31T13:54:41;8.10;;;6.25;;
27383;SDS011;14851;51.166;4.760;2023-10-31T13:57:07;9.10;;;5.40;;
27383;SDS011;14851;51.166;4.760;2023-10-31T13:59:33;10.10;;;5.97;;
27383;SDS011;14851;51.166;4.760;2023-10-31T14:02:02;9.38;;;5.05;;
27383;SDS011;14851;51.166;4.760;2023-10-31T14:04:28;7.93;;;5.28;;
27383;SDS011;14851;51.166;4.760;2023-10-31T14:06:54;7.53;;;4.90;;
27383;SDS011;14851;51.166;4.760;2023-10-31T14:09:21;7.20;;;4.93;;
27383;SDS011;14851;51.166;4.760;2023-10-31T14:11:47;6.13;;;5.47;;
27383;SDS011;14851;51.166;4.760;2023-10-31T14:14:15;9.95;;;5.65;;
27383;SDS011;14851;51.166;4.760;2023-10-31T14:16:41;9.23;;;4.95;;
27383;SDS011;14851;51.166;4.760;2023-10-31T14:19:11;7.03;;;5.55;;
27383;SDS011;14851;51.166;4.760;2023-10-31T14:21:39;8.18;;;5.53;;
27383;SDS011;14851;51.166;4.760;2023-10-31T14:24:05;6.57;;;5.82;;
27383;SDS011;14851;51.166;4.760;2023-10-31T14:26:33;5.07;;;4.30;;
27383;SDS011;14851;51.166;4.760;2023-10-31T14:29:04;7.60;;;4.75;;
27383;SDS011;14851;51.166;4.760;2023-10-31T14:31:30;7.18;;;4.45;;
27383;SDS011;14851;51.166;4.760;2023-10-31T14:33:56;8.02;;;4.93;;
27383;SDS011;14851;51.166;4.760;2023-10-31T14:36:23;6.55;;;5.00;;
27383;SDS011;14851;51.166;4.760;2023-10-31T14:38:49;6.28;;;4.78;;
27383;SDS011;14851;51.166;4.760;2023-10-31T14:41:16;5.40;;;4.50;;
27383;SDS011;14851;51.166;4.760;2023-10-31T14:43:44;8.85;;;4.85;;
27383;SDS011;14851;51.166;4.760;2023-10-31T14:46:10;6.35;;;4.65;;
27383;SDS011;14851;51.166;4.760;2023-10-31T14:48:39;6.82;;;4.68;;
27383;SDS011;14851;51.166;4.760;2023-10-31T14:51:05;6.85;;;4.65;;
27383;SDS011;14851;51.166;4.760;2023-10-31T14:53:32;6.50;;;4.97;;